Time;durP1;ratioP1;P1;durP2;ratioP2;P2;SDS_P1;SDS_P2;PMS_P1;PMS_P2;Temp;Humidity;BMP_temperature;BMP_pressure;BME280_temperature;BME280_humidity;BME280_pressure;Samples;Min_cycle;Max_cycle;Signal;HPM_P1;HPM_P2
2021/09/20 00:01:59;;;;;;;3.85;2.50;;;;;;;18.66;53.32;101850.94;4973709;28;119916;-68
2021/09/20 00:04:25;;;;;;;3.83;2.28;;;;;;;18.66;53.25;101860.03;4988044;28;121200;-66
2021/09/20 00:06:51;;;;;;;4.30;2.20;;;;;;;18.65;52.22;101860.50;4985618;28;119660;-68
2021/09/20 00:09:19;;;;;;;4.18;2.40;;;;;;;18.62;53.02;101851.13;4987562;28;120403;-66
2021/09/20 00:11:57;;;;;;;3.78;2.42;;;;;;;18.64;53.50;101856.19;4984957;28;120237;-67
2021/09/20 00:14:24;;;;;;;4.40;2.53;;;;;;;18.67;54.28;101855.25;4985701;28;120712;-67
2021/09/20 00:16:50;;;;;;;4.75;2.40;;;;;;;18.68;53.04;101859.56;4984119;28;119738;-68
2021/09/20 00:19:16;;;;;;;3.60;2.40;;;;;;;18.66;52.57;101860.03;4985366;28;123378;-67
2021/09/20 00:21:42;;;;;;;4.82;2.30;;;;;;;18.66;53.00;101857.25;4990928;28;120363;-67
2021/09/20 00:24:10;;;;;;;4.97;2.42;;;;;;;18.63;53.96;101861.00;4986266;28;119865;-67
2021/09/20 00:26:36;;;;;;;3.63;2.33;;;;;;;18.56;53.63;101857.81;4970695;28;120725;-67
2021/09/20 00:29:16;;;;;;;7.73;2.30;;;;;;;18.53;54.63;101853.97;4970844;28;120813;-66
2021/09/20 00:31:42;;;;;;;4.10;2.43;;;;;;;18.42;54.92;101856.53;4985698;28;120458;-68
2021/09/20 00:34:07;;;;;;;5.07;2.60;;;;;;;18.43;54.35;101860.84;4988355;28;121810;-67
2021/09/20 00:36:33;;;;;;;6.10;2.60;;;;;;;18.41;55.19;101868.88;4987981;28;120032;-67
2021/09/20 00:38:59;;;;;;;5.67;2.50;;;;;;;18.38;54.86;101862.28;4982270;28;120562;-68
2021/09/20 00:41:25;;;;;;;5.47;2.57;;;;;;;18.37;54.04;101866.28;4963482;28;119723;-66
2021/09/20 00:43:51;;;;;;;3.60;2.40;;;;;;;18.35;54.78;101865.25;4985723;28;120513;-67
2021/09/20 00:46:17;;;;;;;3.70;2.50;;;;;;;18.34;55.14;101872.81;4986603;28;119627;-66
2021/09/20 00:48:43;;;;;;;5.15;2.50;;;;;;;18.33;54.82;101871.28;4986305;28;119780;-67
2021/09/20 00:51:09;;;;;;;2.93;2.53;;;;;;;18.35;54.82;101870.78;4985952;28;122541;-67
2021/09/20 00:53:35;;;;;;;4.60;2.67;;;;;;;18.36;54.66;101870.31;4988916;28;120937;-68
2021/09/20 00:56:00;;;;;;;4.10;2.50;;;;;;;18.31;54.64;101868.22;4970593;28;122219;-67
2021/09/20 00:58:26;;;;;;;4.27;2.50;;;;;;;18.39;53.38;101868.59;4985351;28;120414;-67
2021/09/20 01:00:52;;;;;;;5.20;2.78;;;;;;;18.35;54.43;101874.34;4986672;28;120678;-68
2021/09/20 01:03:19;;;;;;;5.25;2.75;;;;;;;18.35;54.01;101874.34;4971656;28;120034;-67
2021/09/20 01:05:45;;;;;;;5.57;2.50;;;;;;;18.28;53.66;101860.84;4987897;28;119739;-65
2021/09/20 01:08:11;;;;;;;5.30;2.60;;;;;;;18.33;54.00;101879.59;4980281;28;119807;-67
2021/09/20 01:10:37;;;;;;;3.65;2.75;;;;;;;18.34;55.17;101878.38;4986563;28;119558;-68
2021/09/20 01:13:03;;;;;;;4.55;2.85;;;;;;;18.35;54.96;101876.34;4985203;28;119647;-68
2021/09/20 01:15:29;;;;;;;3.53;2.70;;;;;;;18.38;54.55;101878.19;4968570;28;119990;-67
2021/09/20 01:17:55;;;;;;;4.60;2.78;;;;;;;18.38;54.53;101876.16;4986296;28;119680;-67
2021/09/20 01:20:22;;;;;;;4.07;2.55;;;;;;;18.38;53.89;101878.94;4986367;28;121473;-68
2021/09/20 01:22:59;;;;;;;6.57;2.90;;;;;;;18.41;54.36;101877.22;5000070;27;120040;-68
2021/09/20 01:25:34;;;;;;;4.03;2.97;;;;;;;18.40;53.94;101870.91;4987393;28;120091;-67
2021/09/20 01:28:01;;;;;;;5.27;3.00;;;;;;;18.40;53.94;101865.34;4986577;28;119736;-67
2021/09/20 01:30:27;;;;;;;5.72;2.85;;;;;;;18.39;53.76;101866.59;4985425;28;119839;-67
2021/09/20 01:32:53;;;;;;;4.80;2.72;;;;;;;18.35;53.37;101856.91;4980280;28;119995;-67
2021/09/20 01:35:21;;;;;;;4.13;2.80;;;;;;;18.42;54.01;101860.06;4985189;28;120098;-67
2021/09/20 01:37:47;;;;;;;3.58;2.72;;;;;;;18.46;54.63;101861.94;4960295;28;121022;-66
2021/09/20 01:40:14;;;;;;;5.97;3.00;;;;;;;18.46;53.78;101867.47;4966359;28;120212;-67
2021/09/20 01:42:41;;;;;;;5.30;3.00;;;;;;;18.46;53.57;101856.38;4984135;28;121465;-67
2021/09/20 01:45:10;;;;;;;4.75;2.88;;;;;;;18.47;54.38;101863.47;4982511;28;121288;-67
2021/09/20 01:47:35;;;;;;;4.60;2.80;;;;;;;18.48;55.72;101862.22;4983785;28;122604;-67
2021/09/20 01:50:01;;;;;;;4.57;2.75;;;;;;;18.48;54.57;101853.88;4968610;28;120114;-67
2021/09/20 01:52:28;;;;;;;5.50;3.08;;;;;;;18.48;54.78;101862.22;4986251;28;119815;-67
2021/09/20 01:54:55;;;;;;;3.50;2.88;;;;;;;18.45;55.59;101861.13;4984165;28;119840;-67
2021/09/20 01:57:23;;;;;;;3.70;2.60;;;;;;;18.43;55.88;101858.06;4946299;28;119804;-66
2021/09/20 01:59:50;;;;;;;5.15;2.78;;;;;;;18.41;57.02;101864.09;4980797;28;119889;-67
2021/09/20 02:02:16;;;;;;;5.25;2.63;;;;;;;18.39;56.35;101866.59;4984767;28;120155;-67
2021/09/20 02:04:42;;;;;;;8.00;2.78;;;;;;;18.37;56.66;101862.75;4983118;28;121020;-67
2021/09/20 02:07:08;;;;;;;4.10;2.83;;;;;;;18.35;57.14;101871.56;4983173;28;120436;-67
2021/09/20 02:09:34;;;;;;;4.80;3.00;;;;;;;18.32;55.47;101869.75;4989998;28;120220;-67
2021/09/20 02:12:00;;;;;;;6.90;2.70;;;;;;;18.28;55.12;101860.84;4985120;28;120006;-67
2021/09/20 02:14:26;;;;;;;4.63;2.90;;;;;;;18.27;55.90;101864.84;4985380;28;121160;-67
2021/09/20 02:16:53;;;;;;;4.30;2.80;;;;;;;18.26;55.03;101863.31;4984392;28;120039;-68
2021/09/20 02:19:19;;;;;;;3.77;2.87;;;;;;;18.26;55.51;101862.56;4961825;28;120153;-67
2021/09/20 02:21:45;;;;;;;3.75;2.80;;;;;;;18.27;56.36;101856.53;4967466;28;120049;-66
2021/09/20 02:24:11;;;;;;;5.35;3.30;;;;;;;18.28;56.11;101866.38;4967212;28;119945;-67
2021/09/20 02:26:38;;;;;;;4.28;2.85;;;;;;;18.28;55.81;101866.38;4983764;28;120351;-67
2021/09/20 02:29:05;;;;;;;5.65;2.88;;;;;;;18.29;56.43;101864.38;4968380;28;120268;-67
2021/09/20 02:31:32;;;;;;;4.75;2.80;;;;;;;18.23;55.57;101860.72;4989177;28;120006;-67
2021/09/20 02:34:00;;;;;;;5.22;2.90;;;;;;;18.28;56.54;101868.41;4985668;28;119737;-67
2021/09/20 02:36:26;;;;;;;3.67;2.65;;;;;;;18.28;56.16;101868.41;4979619;28;121956;-67
2021/09/20 02:38:52;;;;;;;4.10;2.63;;;;;;;18.27;55.70;101859.28;4970015;28;120071;-67
2021/09/20 02:41:17;;;;;;;5.00;3.20;;;;;;;18.28;57.17;101863.59;4986794;28;120100;-67
2021/09/20 02:43:43;;;;;;;4.93;2.95;;;;;;;18.29;56.68;101864.38;4986076;28;120188;-67
2021/09/20 02:46:10;;;;;;;4.05;2.80;;;;;;;18.26;56.44;101860.53;4968228;28;120614;-67
2021/09/20 02:48:38;;;;;;;4.43;2.80;;;;;;;18.25;55.89;101856.22;4960229;28;120950;-67
2021/09/20 02:51:04;;;;;;;3.85;2.90;;;;;;;18.26;55.47;101860.53;4994361;27;119785;-67
2021/09/20 02:53:30;;;;;;;4.57;3.10;;;;;;;18.25;56.59;101853.44;4989757;28;121417;-66
2021/09/20 02:55:56;;;;;;;3.83;2.72;;;;;;;18.23;54.88;101855.94;4966884;28;119762;-68
2021/09/20 02:58:23;;;;;;;4.88;2.80;;;;;;;18.23;55.02;101855.19;4983152;28;119772;-67
2021/09/20 03:00:49;;;;;;;4.10;2.72;;;;;;;18.21;55.85;101861.19;4984835;28;119655;-67
2021/09/20 03:03:16;;;;;;;5.03;2.93;;;;;;;18.22;55.13;101864.75;4985430;28;122009;-66
2021/09/20 03:05:42;;;;;;;4.75;2.88;;;;;;;18.21;55.90;101860.41;4985043;28;119758;-67
2021/09/20 03:08:09;;;;;;;4.80;2.80;;;;;;;18.17;56.15;101866.16;4968340;28;120001;-67
2021/09/20 03:10:35;;;;;;;5.20;3.00;;;;;;;18.20;55.55;101867.22;4985788;28;120303;-68
2021/09/20 03:13:02;;;;;;;6.85;3.00;;;;;;;18.18;55.83;101862.13;4989389;28;119616;-67
2021/09/20 03:15:29;;;;;;;4.53;2.90;;;;;;;18.17;55.67;101873.72;4983578;28;120145;-67
2021/09/20 03:17:55;;;;;;;5.35;3.00;;;;;;;18.16;55.13;101867.41;4985131;28;119482;-67
2021/09/20 03:20:22;;;;;;;3.75;2.85;;;;;;;18.14;55.05;101872.66;4986530;28;119986;-67
2021/09/20 03:22:49;;;;;;;5.20;2.90;;;;;;;18.14;55.79;101878.22;4983064;28;120126;-67
2021/09/20 03:25:16;;;;;;;4.70;3.05;;;;;;;18.16;55.67;101874.97;4987328;28;119749;-67
2021/09/20 03:27:43;;;;;;;4.60;2.75;;;;;;;18.15;55.08;101882.53;4985837;28;120353;-67
2021/09/20 03:30:11;;;;;;;4.53;2.80;;;;;;;18.14;55.06;101875.44;4986213;28;121515;-66
2021/09/20 03:32:37;;;;;;;4.97;2.70;;;;;;;18.14;56.07;101885.78;4989040;28;120012;-67
2021/09/20 03:35:04;;;;;;;4.75;2.60;;;;;;;18.09;54.93;101878.88;4991645;28;119940;-67
2021/09/20 03:37:30;;;;;;;4.22;2.90;;;;;;;18.08;54.97;101877.34;4988818;28;119984;-67
2021/09/20 03:39:56;;;;;;;4.93;3.17;;;;;;;18.07;56.46;101886.91;4974315;28;120036;-67
2021/09/20 03:42:22;;;;;;;4.88;2.90;;;;;;;18.00;55.97;101876.16;4987096;28;120722;-68
2021/09/20 03:44:48;;;;;;;4.03;2.60;;;;;;;18.01;54.76;101883.25;4985428;28;119822;-67
2021/09/20 03:47:13;;;;;;;5.30;2.80;;;;;;;17.97;55.11;101885.41;4989146;28;119972;-67
2021/09/20 03:49:42;;;;;;;5.43;3.00;;;;;;;17.95;55.27;101891.44;4988138;28;120056;-67
2021/09/20 03:52:08;;;;;;;4.22;2.90;;;;;;;17.93;53.56;101884.84;4971413;28;120066;-67
2021/09/20 03:54:35;;;;;;;3.90;2.90;;;;;;;17.94;52.56;101889.91;4986006;28;119541;-67
2021/09/20 03:57:00;;;;;;;3.97;2.78;;;;;;;17.93;53.35;101884.84;4990170;28;120486;-67
2021/09/20 03:59:27;;;;;;;4.90;2.90;;;;;;;17.98;54.44;101886.94;4969168;28;119632;-67
2021/09/20 04:01:53;;;;;;;5.57;3.10;;;;;;;17.99;54.21;101888.50;4987253;28;119514;-65
2021/09/20 04:04:19;;;;;;;4.53;3.13;;;;;;;18.03;54.28;101897.44;4987489;28;119522;-68
2021/09/20 04:06:45;;;;;;;4.68;2.95;;;;;;;18.06;54.05;101891.69;4987859;28;119639;-67
2021/09/20 04:09:11;;;;;;;3.85;2.90;;;;;;;18.07;54.06;101896.00;4982178;28;120171;-66
2021/09/20 04:11:40;;;;;;;3.33;2.53;;;;;;;18.09;52.80;101892.75;4988379;28;119760;-67
2021/09/20 04:14:09;;;;;;;3.78;2.75;;;;;;;18.10;53.94;101892.28;4986566;28;119586;-67
2021/09/20 04:16:36;;;;;;;5.05;3.53;;;;;;;18.11;55.11;101893.03;4986932;28;120635;-67
2021/09/20 04:19:01;;;;;;;5.45;3.33;;;;;;;18.11;55.52;101893.03;4990374;28;120066;-67
2021/09/20 04:21:29;;;;;;;3.85;2.80;;;;;;;18.12;53.18;101896.59;4969546;28;121146;-66
2021/09/20 04:23:55;;;;;;;4.27;3.00;;;;;;;18.04;54.83;101894.19;4987104;28;119878;-68
2021/09/20 04:26:21;;;;;;;5.70;3.17;;;;;;;18.12;55.05;101911.25;4988250;28;120162;-67
2021/09/20 04:28:47;;;;;;;3.80;2.90;;;;;;;18.10;53.70;101910.94;4950128;28;120417;-67
2021/09/20 04:31:13;;;;;;;5.03;2.90;;;;;;;18.08;53.26;101905.88;4965120;28;120444;-67
2021/09/20 04:33:40;;;;;;;5.25;3.10;;;;;;;18.07;53.34;101907.13;4982888;28;120619;-67
2021/09/20 04:36:05;;;;;;;4.93;3.10;;;;;;;18.08;53.22;101916.97;4986110;28;120263;-68
2021/09/20 04:38:31;;;;;;;5.03;2.80;;;;;;;18.08;53.06;101911.41;4985390;28;120303;-67
2021/09/20 04:40:56;;;;;;;5.18;3.00;;;;;;;18.07;51.68;101911.91;4973300;28;119939;-66
2021/09/20 04:43:22;;;;;;;4.75;3.00;;;;;;;18.07;52.00;101915.44;4969880;28;119652;-68
2021/09/20 04:45:48;;;;;;;4.47;3.30;;;;;;;18.07;52.29;101921.00;4969151;28;120229;-67
2021/09/20 04:48:14;;;;;;;5.05;3.33;;;;;;;18.06;52.61;101911.13;4968880;28;122131;-67
2021/09/20 04:50:43;;;;;;;5.05;3.30;;;;;;;18.10;53.24;101925.59;4968121;28;121250;-67
2021/09/20 04:53:09;;;;;;;3.88;3.40;;;;;;;18.09;53.10;101921.28;4967981;28;119780;-67
2021/09/20 04:55:36;;;;;;;4.97;3.60;;;;;;;18.09;52.20;101920.53;4983652;28;120182;-67
2021/09/20 04:58:06;;;;;;;6.07;3.80;;;;;;;18.09;53.63;101923.28;4984933;28;122294;-66
2021/09/20 05:00:34;;;;;;;5.72;3.50;;;;;;;18.12;53.12;101935.47;4986966;28;119674;-68
2021/09/20 05:03:01;;;;;;;4.43;3.67;;;;;;;18.12;52.66;101936.22;4976896;28;119843;-67
2021/09/20 05:05:27;;;;;;;4.53;3.60;;;;;;;18.12;52.99;101941.78;4987195;28;119691;-68
2021/09/20 05:07:53;;;;;;;5.53;3.83;;;;;;;18.11;53.31;101943.03;4985968;28;120645;-68
2021/09/20 05:10:19;;;;;;;4.57;3.77;;;;;;;18.13;52.80;101943.31;4987294;28;120604;-66
2021/09/20 05:12:46;;;;;;;5.53;3.75;;;;;;;18.13;52.23;101950.88;4999140;28;120406;-66
2021/09/20 05:15:15;;;;;;;6.97;3.70;;;;;;;18.09;52.25;101945.50;4961801;28;121283;-67
2021/09/20 05:17:43;;;;;;;5.80;3.70;;;;;;;18.10;51.85;101949.81;4985004;28;121359;-66
2021/09/20 05:20:11;;;;;;;6.00;3.90;;;;;;;18.09;52.52;101953.84;4985537;28;119994;-67
2021/09/20 05:22:38;;;;;;;4.25;3.63;;;;;;;18.11;51.62;101948.56;4986249;28;120220;-68
2021/09/20 05:25:05;;;;;;;5.88;4.00;;;;;;;18.09;51.31;101949.06;4986857;28;119961;-68
2021/09/20 05:27:31;;;;;;;5.75;4.50;;;;;;;18.08;51.88;101941.19;4985551;28;120257;-68
2021/09/20 05:29:59;;;;;;;5.90;4.32;;;;;;;18.12;51.87;101947.34;4940128;28;119873;-66
2021/09/20 05:32:25;;;;;;;6.28;4.68;;;;;;;18.09;52.10;101945.50;4984896;28;119732;-67
2021/09/20 05:34:51;;;;;;;6.20;4.50;;;;;;;18.16;53.18;101949.94;4967231;28;119772;-67
2021/09/20 05:37:18;;;;;;;7.25;4.63;;;;;;;18.14;52.26;101950.41;4988123;28;119902;-68
2021/09/20 05:39:44;;;;;;;7.23;5.20;;;;;;;18.16;52.94;101956.25;4980121;28;119874;-67
2021/09/20 05:42:10;;;;;;;7.77;5.00;;;;;;;18.16;52.61;101956.25;4985854;28;120074;-67
2021/09/20 05:44:36;;;;;;;9.03;5.10;;;;;;;18.16;53.86;101955.50;4989233;28;120276;-67
2021/09/20 05:47:03;;;;;;;7.95;5.00;;;;;;;18.12;53.05;101944.56;4983589;28;121289;-67
2021/09/20 05:49:29;;;;;;;8.57;4.93;;;;;;;18.18;53.45;101964.88;4986357;28;119651;-67
2021/09/20 05:51:55;;;;;;;8.07;4.75;;;;;;;18.17;52.17;101959.81;4986466;28;119647;-68
2021/09/20 05:54:21;;;;;;;7.65;4.90;;;;;;;18.18;52.80;101958.56;4984473;28;120101;-67
2021/09/20 05:56:47;;;;;;;6.40;5.07;;;;;;;18.18;53.19;101966.88;4983108;28;119841;-67
2021/09/20 05:59:13;;;;;;;5.95;4.47;;;;;;;18.17;52.41;101965.34;4987076;28;119611;-67
2021/09/20 06:01:39;;;;;;;5.70;4.00;;;;;;;18.18;51.06;101972.44;4985761;28;120352;-66
2021/09/20 06:04:04;;;;;;;6.80;4.28;;;;;;;18.10;52.42;101958.16;4985946;28;119775;-67
2021/09/20 06:06:30;;;;;;;8.43;4.67;;;;;;;18.18;52.71;101969.66;4987967;28;120240;-67
2021/09/20 06:08:56;;;;;;;7.30;4.47;;;;;;;18.17;51.63;101968.13;4982454;28;120727;-67
2021/09/20 06:11:22;;;;;;;8.27;4.30;;;;;;;18.18;51.09;101976.00;4968774;28;120970;-66
2021/09/20 06:13:49;;;;;;;5.43;4.47;;;;;;;18.05;51.04;101956.03;4984378;28;120971;-68
2021/09/20 06:16:15;;;;;;;5.03;3.80;;;;;;;18.15;50.11;101976.16;4979547;28;120302;-68
2021/09/20 06:18:42;;;;;;;5.43;3.87;;;;;;;18.15;49.92;101981.72;4985430;28;119622;-67
2021/09/20 06:21:08;;;;;;;5.13;3.90;;;;;;;18.17;49.20;101979.25;4994399;28;119631;-67
2021/09/20 06:23:34;;;;;;;6.55;3.88;;;;;;;18.18;49.71;101989.88;4987401;28;119984;-67
2021/09/20 06:26:00;;;;;;;7.47;4.37;;;;;;;18.19;50.96;101988.63;4983505;28;120471;-67
2021/09/20 06:28:26;;;;;;;7.03;4.13;;;;;;;18.22;50.90;101993.28;4986426;28;119895;-67
2021/09/20 06:30:53;;;;;;;5.95;4.18;;;;;;;18.21;50.66;101991.72;4983355;28;119677;-67
2021/09/20 06:33:19;;;;;;;4.60;3.78;;;;;;;18.23;49.43;101992.03;4983594;28;120123;-66
2021/09/20 06:35:45;;;;;;;5.47;3.83;;;;;;;18.25;48.97;101999.88;4982520;28;119837;-66
2021/09/20 06:38:12;;;;;;;5.07;3.70;;;;;;;18.25;49.42;101997.88;4996044;27;121179;-67
2021/09/20 06:40:38;;;;;;;6.13;3.70;;;;;;;18.26;49.20;101993.09;4966381;28;119773;-67
2021/09/20 06:43:04;;;;;;;6.60;3.90;;;;;;;18.28;49.13;101985.06;4983006;28;119701;-68
2021/09/20 06:45:30;;;;;;;6.60;4.05;;;;;;;18.28;49.44;101987.81;4984867;28;119647;-66
2021/09/20 06:47:55;;;;;;;4.40;3.60;;;;;;;18.29;48.70;101997.69;4979954;28;122162;-67
2021/09/20 06:50:22;;;;;;;6.80;3.90;;;;;;;18.29;49.09;101994.91;4975629;28;119620;-68
2021/09/20 06:52:48;;;;;;;5.50;4.00;;;;;;;18.23;49.74;101983.69;4980226;28;119620;-67
2021/09/20 06:55:14;;;;;;;6.18;4.10;;;;;;;18.33;50.66;101998.28;4944127;28;120326;-67
2021/09/20 06:57:40;;;;;;;5.40;4.07;;;;;;;18.34;51.01;101992.25;4994701;27;120495;-67
2021/09/20 07:00:08;;;;;;;5.47;4.20;;;;;;;18.36;49.97;101994.56;4967714;28;120165;-67
2021/09/20 07:02:34;;;;;;;5.80;4.00;;;;;;;18.38;49.91;102003.19;4964261;28;119688;-67
2021/09/20 07:05:00;;;;;;;5.85;4.10;;;;;;;18.38;48.95;102000.41;4980372;28;120101;-68
2021/09/20 07:07:26;;;;;;;5.82;3.80;;;;;;;18.38;48.99;102005.97;4981975;28;120111;-67
2021/09/20 07:09:52;;;;;;;4.53;4.03;;;;;;;18.40;48.25;102009.03;4988596;28;119799;-67
2021/09/20 07:12:18;;;;;;;6.80;4.20;;;;;;;18.40;49.00;102009.81;4982159;28;120276;-68
2021/09/20 07:14:44;;;;;;;6.23;4.20;;;;;;;18.41;49.91;102011.34;4998595;27;121040;-68
2021/09/20 07:17:09;;;;;;;6.03;3.90;;;;;;;18.41;48.77;102011.34;4983921;28;120307;-68
2021/09/20 07:19:35;;;;;;;5.30;4.10;;;;;;;18.40;48.63;102014.59;4983459;28;120250;-67
2021/09/20 07:22:02;;;;;;;6.93;4.20;;;;;;;18.38;48.86;102011.50;4983158;28;119834;-68
2021/09/20 07:24:28;;;;;;;5.47;4.30;;;;;;;18.39;50.28;102013.81;4984952;28;119624;-67
2021/09/20 07:26:56;;;;;;;6.43;4.40;;;;;;;18.42;49.19;102014.88;4982481;28;120515;-68
2021/09/20 07:29:23;;;;;;;6.40;4.20;;;;;;;18.41;49.43;102016.91;4950151;28;120649;-68
2021/09/20 07:31:48;;;;;;;6.30;4.60;;;;;;;18.42;49.47;102018.44;4989103;28;119823;-66
2021/09/20 07:34:20;;;;;;;5.00;4.25;;;;;;;18.39;48.05;102024.16;4986504;28;119439;-68
2021/09/20 07:36:45;;;;;;;6.60;4.80;;;;;;;18.37;49.38;102021.84;4983746;28;120163;-68
2021/09/20 07:39:14;;;;;;;4.97;4.43;;;;;;;18.40;49.71;102023.69;4984147;28;119957;-67
2021/09/20 07:41:39;;;;;;;7.03;4.80;;;;;;;18.39;49.92;102013.81;4983550;28;120303;-67
2021/09/20 07:44:05;;;;;;;6.10;4.40;;;;;;;18.50;50.04;102023.66;4985002;28;120096;-67
2021/09/20 07:46:33;;;;;;;5.50;4.53;;;;;;;18.54;48.99;102029.78;4984870;28;121093;-67
2021/09/20 07:48:59;;;;;;;7.85;4.60;;;;;;;18.56;49.45;102032.88;4985384;28;120911;-68
2021/09/20 07:51:25;;;;;;;6.40;4.57;;;;;;;18.59;49.18;102043.03;4983480;28;119700;-68
2021/09/20 07:53:50;;;;;;;6.80;4.70;;;;;;;18.62;48.82;102036.53;4988465;28;119946;-68
2021/09/20 07:56:16;;;;;;;5.27;4.60;;;;;;;18.64;48.72;102045.19;4983382;28;119528;-66
2021/09/20 07:58:41;;;;;;;6.20;4.50;;;;;;;18.59;48.47;102043.81;4982396;28;120683;-67
2021/09/20 08:01:07;;;;;;;6.35;4.72;;;;;;;18.57;46.49;102037.94;4985081;28;120137;-66
2021/09/20 08:03:33;;;;;;;7.03;4.60;;;;;;;18.55;47.28;102037.66;4983399;28;120469;-65
2021/09/20 08:05:58;;;;;;;7.57;4.63;;;;;;;18.51;47.64;102037.06;4983016;28;120280;-66
2021/09/20 08:08:27;;;;;;;6.70;4.97;;;;;;;18.52;48.79;102046.19;4977778;28;120452;-67
2021/09/20 08:10:53;;;;;;;7.95;4.85;;;;;;;18.56;48.50;102050.31;4964843;28;120885;-66
2021/09/20 08:13:19;;;;;;;7.18;4.70;;;;;;;18.61;47.74;102052.44;4989224;28;119684;-66
2021/09/20 08:15:45;;;;;;;6.37;4.70;;;;;;;18.65;49.22;102052.28;4987282;28;119858;-67
2021/09/20 08:18:12;;;;;;;5.97;4.50;;;;;;;18.66;48.08;102053.81;4984395;28;120028;-67
2021/09/20 08:20:41;;;;;;;6.40;4.80;;;;;;;18.70;48.64;102054.44;4984248;28;120558;-67
2021/09/20 08:23:06;;;;;;;7.15;4.68;;;;;;;18.70;47.24;102060.75;4984554;28;120216;-66
2021/09/20 08:25:33;;;;;;;6.30;4.25;;;;;;;18.70;45.59;102065.53;4981846;28;119819;-67
2021/09/20 08:27:59;;;;;;;9.53;4.20;;;;;;;18.71;45.15;102067.09;4983332;28;119727;-66
2021/09/20 08:30:25;;;;;;;6.72;4.20;;;;;;;18.68;46.18;102066.00;4983845;28;119894;-67
2021/09/20 08:32:51;;;;;;;6.70;4.25;;;;;;;18.77;45.66;102070.75;4985914;28;120096;-67
2021/09/20 08:35:21;;;;;;;5.60;4.40;;;;;;;18.84;44.44;102075.94;4985627;28;120106;-67
2021/09/20 08:37:48;;;;;;;6.53;4.47;;;;;;;18.85;45.06;102073.91;4987761;28;119755;-67
2021/09/20 08:40:17;;;;;;;5.18;4.10;;;;;;;18.85;44.00;102071.91;4945860;28;120376;-65
2021/09/20 08:42:44;;;;;;;6.03;4.13;;;;;;;18.88;46.42;102075.75;4982635;28;120425;-66
2021/09/20 08:45:14;;;;;;;5.35;4.20;;;;;;;18.98;46.72;102074.44;4966391;28;123554;-66
2021/09/20 08:47:46;;;;;;;5.97;4.22;;;;;;;19.05;44.71;102076.09;4980665;28;120080;-66
2021/09/20 08:50:15;;;;;;;6.10;4.25;;;;;;;19.04;43.87;102082.91;4983012;28;119690;-67
2021/09/20 08:52:42;;;;;;;6.60;4.38;;;;;;;19.04;44.74;102082.91;4980188;28;120258;-67
2021/09/20 08:55:08;;;;;;;6.23;4.47;;;;;;;19.02;43.74;102075.03;4982898;28;120453;-67
2021/09/20 08:57:37;;;;;;;6.53;4.60;;;;;;;18.98;44.54;102069.66;4964645;28;123370;-66
2021/09/20 09:00:06;;;;;;;5.28;4.00;;;;;;;19.01;45.43;102077.03;4969290;28;122608;-66
2021/09/20 09:02:32;;;;;;;5.50;3.60;;;;;;;19.01;42.65;102071.47;4984719;28;120014;-66
2021/09/20 09:05:21;;;;;;;7.18;3.85;;;;;;;19.01;43.63;102073.50;4940902;28;120449;-67
2021/09/20 09:08:09;;;;;;;5.97;3.90;;;;;;;18.95;43.11;102073.38;4977601;28;120045;-66
2021/09/20 09:10:38;;;;;;;6.38;3.65;;;;;;;18.94;41.74;102080.19;4995372;28;120037;-67
2021/09/20 09:13:07;;;;;;;5.35;3.70;;;;;;;18.91;42.43;102075.56;4982488;28;121029;-67
2021/09/20 09:15:35;;;;;;;4.95;3.63;;;;;;;18.90;43.28;102074.03;4981651;28;120367;-67
2021/09/20 09:18:04;;;;;;;6.25;4.10;;;;;;;18.90;42.84;102074.03;4966307;28;121333;-66
2021/09/20 09:20:33;;;;;;;6.72;4.00;;;;;;;18.91;43.11;102080.34;4985097;28;120887;-66
2021/09/20 09:23:01;;;;;;;6.15;4.10;;;;;;;18.89;44.13;102074.50;4983479;28;120606;-66
2021/09/20 09:25:36;;;;;;;6.63;4.05;;;;;;;18.92;44.53;102076.31;4983296;28;120279;-67
2021/09/20 09:28:15;;;;;;;8.48;4.60;;;;;;;19.01;45.82;102067.94;4946867;28;119970;-66
2021/09/20 09:30:47;;;;;;;5.60;3.90;;;;;;;19.09;45.11;102074.66;4982784;28;120114;-65
2021/09/20 09:33:18;;;;;;;5.40;3.60;;;;;;;19.15;43.50;102071.97;4981308;28;120850;-66
2021/09/20 09:35:50;;;;;;;5.47;3.60;;;;;;;19.18;42.87;102062.69;4965532;28;120302;-67
2021/09/20 09:38:17;;;;;;;4.90;3.50;;;;;;;19.26;43.03;102077.75;4949028;28;119989;-65
2021/09/20 09:40:58;;;;;;;7.50;3.90;;;;;;;19.25;43.91;102065.09;4978720;28;120002;-67
2021/09/20 09:43:27;;;;;;;5.63;3.78;;;;;;;19.25;42.41;102057.53;4981795;28;120342;-66
2021/09/20 09:45:55;;;;;;;5.55;3.70;;;;;;;19.26;41.99;102066.63;4981175;28;121039;-67
2021/09/20 09:48:23;;;;;;;6.88;3.67;;;;;;;19.24;41.46;102067.13;4983097;28;120143;-66
2021/09/20 09:50:51;;;;;;;4.40;3.57;;;;;;;19.25;41.49;102065.88;4981547;28;119801;-66
2021/09/20 09:53:22;;;;;;;7.80;3.70;;;;;;;19.28;43.23;102064.13;4982275;28;120782;-67
2021/09/20 09:55:49;;;;;;;4.95;3.78;;;;;;;19.32;42.36;102067.50;4972338;28;120417;-67
2021/09/20 09:58:16;;;;;;;7.38;4.03;;;;;;;19.32;41.72;102064.72;4963813;28;120190;-66
2021/09/20 10:00:45;;;;;;;6.68;3.85;;;;;;;19.31;41.64;102058.38;4964694;28;120459;-67
2021/09/20 10:03:11;;;;;;;4.03;3.63;;;;;;;19.29;43.00;102051.78;4982511;28;122174;-66
2021/09/20 10:05:37;;;;;;;6.13;3.67;;;;;;;19.31;41.21;102057.63;4981690;28;120204;-66
2021/09/20 10:08:12;;;;;;;5.77;4.00;;;;;;;19.25;41.12;102048.41;4981130;28;119718;-66
2021/09/20 10:10:40;;;;;;;6.50;4.07;;;;;;;19.24;41.39;102063.56;4981264;28;121548;-66
2021/09/20 10:13:08;;;;;;;5.63;4.00;;;;;;;19.22;41.50;102058.47;4963981;28;121043;-67
2021/09/20 10:15:35;;;;;;;5.68;4.13;;;;;;;19.24;43.87;102055.22;4980607;28;120715;-66
2021/09/20 10:18:02;;;;;;;4.87;4.00;;;;;;;19.25;42.51;102053.97;4963910;28;119936;-66
2021/09/20 10:20:28;;;;;;;5.18;3.90;;;;;;;19.23;41.09;102059.25;4964155;28;121257;-66
2021/09/20 10:22:56;;;;;;;5.77;3.97;;;;;;;19.20;42.47;102054.66;4983937;28;120286;-66
2021/09/20 10:25:23;;;;;;;5.32;3.95;;;;;;;19.16;42.23;102045.69;4983429;28;119978;-67
2021/09/20 10:27:51;;;;;;;7.88;4.10;;;;;;;19.18;42.32;102060.69;4986132;28;121067;-66
2021/09/20 10:30:25;;;;;;;6.47;4.28;;;;;;;19.20;42.05;102057.44;4979489;28;119593;-66
2021/09/20 10:32:54;;;;;;;6.20;3.78;;;;;;;19.23;42.43;102059.25;4980767;28;120210;-66
2021/09/20 10:35:21;;;;;;;6.23;3.97;;;;;;;19.21;40.39;102059.72;4995435;28;121180;-67
2021/09/20 10:37:48;;;;;;;6.18;4.00;;;;;;;19.19;41.62;102061.44;4967971;28;120065;-67
2021/09/20 10:40:14;;;;;;;6.10;4.10;;;;;;;19.18;40.58;102059.91;4985800;28;120853;-67
2021/09/20 10:42:48;;;;;;;5.25;3.88;;;;;;;19.21;41.73;102061.75;4983717;28;119876;-66
2021/09/20 10:45:39;;;;;;;5.85;4.00;;;;;;;19.09;39.76;102044.06;4978015;28;119922;-66
2021/09/20 10:48:15;;;;;;;5.32;4.00;;;;;;;19.18;40.35;102054.34;4985354;28;120756;-66
2021/09/20 10:50:42;;;;;;;5.00;3.60;;;;;;;19.15;39.22;102056.06;4990702;28;120035;-67
2021/09/20 10:53:15;;;;;;;5.70;3.90;;;;;;;19.14;39.88;102060.09;4983463;28;120842;-67
2021/09/20 10:56:02;;;;;;;6.38;4.55;;;;;;;19.15;40.75;102056.06;4977355;28;122090;-66
2021/09/20 10:58:38;;;;;;;6.88;4.20;;;;;;;19.19;41.67;102061.44;4986627;28;120106;-67
2021/09/20 11:01:10;;;;;;;5.40;4.10;;;;;;;19.21;40.95;102059.72;4981433;28;120621;-67
2021/09/20 11:04:10;;;;;;;6.27;4.60;;;;;;;19.26;42.89;102058.28;4985079;28;119752;-66
2021/09/20 11:06:40;;;;;;;6.22;4.30;;;;;;;19.28;41.36;102061.34;5010553;27;120063;-66
2021/09/20 11:09:06;;;;;;;6.80;4.47;;;;;;;19.26;41.21;102055.50;4985677;28;121106;-67
2021/09/20 11:11:41;;;;;;;6.27;4.10;;;;;;;19.29;42.82;102054.56;4978099;28;119641;-65
2021/09/20 11:14:19;;;;;;;6.30;4.90;;;;;;;19.32;42.37;102057.13;4985379;28;119926;-67
2021/09/20 11:16:59;;;;;;;7.38;4.47;;;;;;;19.35;41.50;102052.63;4967676;28;120065;-67
2021/09/20 11:19:28;;;;;;;5.73;4.50;;;;;;;19.34;40.50;102062.22;4980083;28;120066;-67